createdAt,value
2018-03-02T00:01:24.358Z,-6.30
2018-03-02T00:03:50.444Z,-6.30
2018-03-02T00:06:17.284Z,-6.40
2018-03-02T00:08:44.179Z,-6.50
2018-03-02T00:11:10.260Z,-6.50
2018-03-02T00:13:36.396Z,-6.50
2018-03-02T00:16:02.506Z,-6.60
2018-03-02T00:18:28.595Z,-6.70
2018-03-02T00:20:54.673Z,-6.70
2018-03-02T00:23:20.792Z,-6.70
2018-03-02T00:25:46.868Z,-6.70
2018-03-02T00:28:12.936Z,-6.80
2018-03-02T00:30:39.020Z,-6.80
2018-03-02T00:33:05.088Z,-6.90
2018-03-02T00:35:31.167Z,-7.00
2018-03-02T00:37:57.973Z,-7.00
2018-03-02T00:40:24.100Z,-7.00
2018-03-02T00:42:50.160Z,-7.00
2018-03-02T00:45:16.235Z,-7.00
2018-03-02T00:47:43.048Z,-7.10
2018-03-02T00:50:09.116Z,-7.10
2018-03-02T00:52:35.219Z,-7.10
2018-03-02T00:55:01.292Z,-7.10
2018-03-02T00:57:27.365Z,-7.20
2018-03-02T00:59:53.427Z,-7.20
2018-03-02T01:02:19.522Z,-7.20
2018-03-02T01:04:46.391Z,-7.20
2018-03-02T01:07:12.479Z,-7.20
2018-03-02T01:09:38.553Z,-7.20
2018-03-02T01:12:05.385Z,-7.20
2018-03-02T01:14:31.449Z,-7.30
2018-03-02T01:16:57.523Z,-7.30
2018-03-02T01:19:23.595Z,-7.30
2018-03-02T01:21:49.679Z,-7.30
2018-03-02T01:24:15.820Z,-7.20
2018-03-02T01:26:41.928Z,-7.30
2018-03-02T01:29:08.769Z,-7.30
2018-03-02T01:31:34.853Z,-7.40
2018-03-02T01:34:01.026Z,-7.30
2018-03-02T01:36:27.159Z,-7.40
2018-03-02T01:38:53.291Z,-7.40
2018-03-02T01:41:19.357Z,-7.40
2018-03-02T01:43:45.446Z,-7.40
2018-03-02T01:46:11.558Z,-7.40
2018-03-02T01:48:38.379Z,-7.40
2018-03-02T01:51:04.564Z,-7.40
2018-03-02T01:53:30.663Z,-7.50
2018-03-02T01:55:57.492Z,-7.50
2018-03-02T01:58:23.571Z,-7.50
2018-03-02T02:00:50.412Z,-7.50
2018-03-02T02:03:16.497Z,-7.50
2018-03-02T02:05:42.582Z,-7.60
2018-03-02T02:08:08.784Z,-7.60
2018-03-02T02:10:34.880Z,-7.60
2018-03-02T02:13:01.715Z,-7.60
2018-03-02T02:15:27.813Z,-7.70
2018-03-02T02:17:53.896Z,-7.60
2018-03-02T02:20:20.095Z,-7.60
2018-03-02T02:22:46.171Z,-7.60
2018-03-02T02:25:12.263Z,-7.60
2018-03-02T02:27:38.352Z,-7.70
2018-03-02T02:30:04.449Z,-7.70
2018-03-02T02:32:30.528Z,-7.70
2018-03-02T02:34:56.628Z,-7.70
2018-03-02T02:37:22.707Z,-7.80
2018-03-02T02:39:48.812Z,-7.80
2018-03-02T02:42:14.899Z,-7.80
2018-03-02T02:44:41.735Z,-7.80
2018-03-02T02:47:07.822Z,-7.80
2018-03-02T02:49:33.894Z,-7.80
2018-03-02T02:51:59.979Z,-7.80
2018-03-02T02:54:26.053Z,-7.90
2018-03-02T02:56:52.156Z,-7.90
2018-03-02T02:59:18.344Z,-8.00
2018-03-02T03:01:44.445Z,-8.00
2018-03-02T03:04:10.541Z,-8.00
2018-03-02T03:06:36.624Z,-8.00
2018-03-02T03:09:02.715Z,-8.00
2018-03-02T03:11:28.911Z,-8.00
2018-03-02T03:13:54.984Z,-8.00
2018-03-02T03:16:21.133Z,-8.00
2018-03-02T03:18:47.204Z,-8.00
2018-03-02T03:21:13.295Z,-8.00
2018-03-02T03:23:39.352Z,-8.00
2018-03-02T03:26:05.458Z,-8.10
2018-03-02T03:28:32.287Z,-8.10
2018-03-02T03:30:58.355Z,-8.10
2018-03-02T03:33:24.460Z,-8.10
2018-03-02T03:35:50.547Z,-8.10
2018-03-02T03:38:16.631Z,-8.10
2018-03-02T03:40:42.707Z,-8.20
2018-03-02T03:43:08.794Z,-8.20
2018-03-02T03:45:34.859Z,-8.20
2018-03-02T03:48:00.945Z,-8.20
2018-03-02T03:50:27.798Z,-8.20
2018-03-02T03:52:53.867Z,-8.20
2018-03-02T03:55:19.924Z,-8.30
2018-03-02T03:57:46.007Z,-8.30
2018-03-02T04:00:12.075Z,-8.30
2018-03-02T04:02:38.163Z,-8.30
2018-03-02T04:05:04.267Z,-8.30
2018-03-02T04:07:30.376Z,-8.30
2018-03-02T04:09:57.406Z,-8.40
2018-03-02T04:12:23.519Z,-8.40
2018-03-02T04:14:49.606Z,-8.40
2018-03-02T04:17:16.419Z,-8.40
2018-03-02T04:19:42.519Z,-8.40
2018-03-02T04:22:08.595Z,-8.40
2018-03-02T04:24:34.688Z,-8.40
2018-03-02T04:27:01.612Z,-8.30
2018-03-02T04:29:27.611Z,-8.30
2018-03-02T04:31:53.711Z,-8.30
2018-03-02T04:34:20.548Z,-8.30
2018-03-02T04:36:46.625Z,-8.30
2018-03-02T04:39:12.794Z,-8.30
2018-03-02T04:41:38.877Z,-8.20
2018-03-02T04:44:05.723Z,-8.10
2018-03-02T04:46:31.811Z,-8.10
2018-03-02T04:48:57.911Z,-8.00
2018-03-02T04:51:24.739Z,-7.90
2018-03-02T04:53:50.847Z,-7.90
2018-03-02T04:56:16.923Z,-7.80
2018-03-02T04:58:43.013Z,-7.80
2018-03-02T05:01:09.112Z,-7.80
2018-03-02T05:03:35.942Z,-7.70
2018-03-02T05:06:02.067Z,-7.70
2018-03-02T05:08:28.894Z,-7.60
2018-03-02T05:10:55.008Z,-7.70
2018-03-02T05:13:21.840Z,-7.60
2018-03-02T05:15:48.040Z,-7.60
2018-03-02T05:18:14.119Z,-7.60
2018-03-02T05:20:40.216Z,-7.60
2018-03-02T05:23:06.351Z,-7.60
2018-03-02T05:25:32.443Z,-7.60
2018-03-02T05:27:58.611Z,-7.50
2018-03-02T05:30:24.731Z,-7.50
2018-03-02T05:32:51.607Z,-7.50
2018-03-02T05:35:17.703Z,-7.50
2018-03-02T05:37:43.784Z,-7.50
2018-03-02T05:40:09.891Z,-7.50
2018-03-02T05:42:35.971Z,-7.50
2018-03-02T05:45:02.051Z,-7.50
2018-03-02T05:47:28.141Z,-7.50
2018-03-02T05:49:54.222Z,-7.60
2018-03-02T05:52:20.318Z,-7.60
2018-03-02T05:54:46.403Z,-7.50
2018-03-02T05:57:12.499Z,-7.60
2018-03-02T05:59:38.584Z,-7.50
2018-03-02T06:02:04.693Z,-7.50
2018-03-02T06:04:30.783Z,-7.50
2018-03-02T06:06:57.689Z,-7.60
2018-03-02T06:09:23.774Z,-7.60
2018-03-02T06:11:50.660Z,-7.60
2018-03-02T06:14:16.743Z,-7.60
2018-03-02T06:16:42.838Z,-7.60
2018-03-02T06:19:08.966Z,-7.50
2018-03-02T06:21:35.076Z,-7.50
2018-03-02T06:24:01.911Z,-7.40
2018-03-02T06:26:27.994Z,-7.40
2018-03-02T06:28:54.098Z,-7.40
2018-03-02T06:31:20.183Z,-7.30
2018-03-02T06:33:46.283Z,-7.30
2018-03-02T06:36:12.359Z,-7.30
2018-03-02T06:38:38.448Z,-7.20
2018-03-02T06:41:04.523Z,-7.20
2018-03-02T06:43:30.603Z,-7.20
2018-03-02T06:45:56.686Z,-7.10
2018-03-02T06:48:22.779Z,-7.10
2018-03-02T06:50:48.850Z,-7.00
2018-03-02T06:53:15.683Z,-6.90
2018-03-02T06:55:41.761Z,-6.90
2018-03-02T06:58:08.250Z,-6.80
2018-03-02T07:00:34.335Z,-6.80
2018-03-02T07:03:01.171Z,-6.70
2018-03-02T07:05:27.273Z,-6.70
2018-03-02T07:07:53.367Z,-6.70
2018-03-02T07:10:20.195Z,-6.50
2018-03-02T07:12:46.382Z,-6.50
2018-03-02T07:15:12.476Z,-6.50
2018-03-02T07:17:38.631Z,-6.50
2018-03-02T07:20:05.473Z,-6.50
2018-03-02T07:22:31.559Z,-6.50
2018-03-02T07:24:57.650Z,-6.50
2018-03-02T07:27:23.732Z,-6.40
2018-03-02T07:29:49.827Z,-6.40
2018-03-02T07:32:15.947Z,-6.30
2018-03-02T07:34:42.030Z,-6.20
2018-03-02T07:37:08.112Z,-6.20
2018-03-02T07:39:34.237Z,-6.10
2018-03-02T07:42:00.322Z,-6.10
2018-03-02T07:44:26.411Z,-6.10
2018-03-02T07:46:52.499Z,-6.10
2018-03-02T07:49:19.342Z,-6.00
2018-03-02T07:51:45.423Z,-6.00
2018-03-02T07:54:11.567Z,-5.90
2018-03-02T07:56:37.675Z,-5.80
2018-03-02T07:59:04.511Z,-5.70
2018-03-02T08:01:30.607Z,-5.70
2018-03-02T08:03:56.691Z,-5.60
2018-03-02T08:06:22.795Z,-5.40
2018-03-02T08:08:48.884Z,-5.30
2018-03-02T08:11:15.717Z,-5.10
2018-03-02T08:13:41.921Z,-5.10
2018-03-02T08:16:08.053Z,-5.10
2018-03-02T08:18:34.111Z,-5.00
2018-03-02T08:21:00.200Z,-5.10
2018-03-02T08:23:27.023Z,-4.80
2018-03-02T08:25:53.116Z,-4.80
2018-03-02T08:28:19.191Z,-4.80
2018-03-02T08:30:45.283Z,-4.80
2018-03-02T08:33:11.396Z,-4.70
2018-03-02T08:35:38.219Z,-4.60
2018-03-02T08:38:04.327Z,-4.60
2018-03-02T08:40:30.421Z,-4.50
2018-03-02T08:42:56.551Z,-4.40
2018-03-02T08:45:22.616Z,-4.40
2018-03-02T08:47:48.723Z,-4.30
2018-03-02T08:50:14.807Z,-4.30
2018-03-02T08:52:40.904Z,-4.20
2018-03-02T08:55:06.987Z,-4.10
2018-03-02T08:57:33.080Z,-4.00
2018-03-02T08:59:59.172Z,-3.80
2018-03-02T09:02:25.271Z,-3.70
2018-03-02T09:04:52.137Z,-3.70
2018-03-02T09:07:18.952Z,-3.60
2018-03-02T09:09:45.058Z,-3.60
2018-03-02T09:12:11.131Z,-3.50
2018-03-02T09:14:37.207Z,-3.50
2018-03-02T09:17:03.356Z,-3.60
2018-03-02T09:19:29.432Z,-3.50
2018-03-02T09:21:55.523Z,-3.40
2018-03-02T09:24:21.598Z,-3.50
2018-03-02T09:26:47.672Z,-3.40
2018-03-02T09:29:13.751Z,-3.50
2018-03-02T09:31:39.819Z,-3.40
2018-03-02T09:34:05.927Z,-3.30
2018-03-02T09:36:32.008Z,-3.10
2018-03-02T09:38:58.090Z,-3.10
2018-03-02T09:41:24.178Z,-3.00
2018-03-02T09:43:50.283Z,-2.90
2018-03-02T09:46:16.409Z,-3.00
2018-03-02T09:48:42.456Z,-3.10
2018-03-02T09:51:08.530Z,-3.00
2018-03-02T09:53:34.619Z,-2.90
2018-03-02T09:56:00.831Z,-2.90
2018-03-02T09:58:26.947Z,-2.90
2018-03-02T10:00:53.039Z,-2.80
2018-03-02T10:03:19.176Z,-2.70
2018-03-02T10:05:45.279Z,-2.60
2018-03-02T10:08:11.354Z,-2.60
2018-03-02T10:10:37.461Z,-2.50
2018-03-02T10:13:04.294Z,-2.20
2018-03-02T10:15:30.392Z,-2.20
2018-03-02T10:17:56.482Z,-2.20
2018-03-02T10:20:22.587Z,-2.10
2018-03-02T10:22:48.677Z,-1.90
2018-03-02T10:25:15.510Z,-1.80
2018-03-02T10:27:41.615Z,-1.80
2018-03-02T10:30:07.710Z,-1.90
2018-03-02T10:32:34.543Z,-1.80
2018-03-02T10:35:00.660Z,-1.80
2018-03-02T10:37:26.752Z,-1.80
2018-03-02T10:39:52.860Z,-1.80
2018-03-02T10:42:18.943Z,-1.70
2018-03-02T10:44:45.023Z,-1.70
2018-03-02T10:47:11.110Z,-1.70
2018-03-02T10:49:37.268Z,-1.60
2018-03-02T10:52:03.354Z,-1.70
2018-03-02T10:54:29.448Z,-1.60
2018-03-02T10:56:55.571Z,-1.50
2018-03-02T10:59:21.718Z,-1.60
2018-03-02T11:01:53.864Z,-1.50
2018-03-02T11:04:19.976Z,-1.40
2018-03-02T11:06:46.070Z,-1.20
2018-03-02T11:09:12.180Z,-1.50
2018-03-02T11:11:39.015Z,-1.30
2018-03-02T11:14:05.103Z,-1.40
2018-03-02T11:16:31.186Z,-1.40
2018-03-02T11:18:57.276Z,-1.40
2018-03-02T11:21:23.380Z,-1.40
2018-03-02T11:23:49.519Z,-1.30
2018-03-02T11:26:16.350Z,-0.80
2018-03-02T11:28:42.452Z,-0.80
2018-03-02T11:31:08.551Z,-0.60
2018-03-02T11:33:35.376Z,-0.70
2018-03-02T11:36:01.592Z,-0.80
2018-03-02T11:38:27.703Z,-0.70
2018-03-02T11:40:53.868Z,-0.60
2018-03-02T11:43:20.035Z,-0.40
2018-03-02T11:45:46.156Z,-0.40
2018-03-02T11:48:12.300Z,-0.40
2018-03-02T11:50:38.399Z,-0.30
2018-03-02T11:53:04.506Z,-0.10
2018-03-02T11:55:30.625Z,0.00
2018-03-02T11:57:56.825Z,-0.10
2018-03-02T12:00:22.945Z,-0.40
2018-03-02T12:02:49.783Z,-0.10
2018-03-02T12:05:15.900Z,-0.10
2018-03-02T12:07:41.960Z,-0.20
2018-03-02T12:10:08.788Z,0.20
2018-03-02T12:12:34.883Z,0.20
2018-03-02T12:15:00.973Z,0.10
2018-03-02T12:17:27.124Z,0.00
2018-03-02T12:19:53.222Z,0.10
2018-03-02T12:22:19.359Z,0.20
2018-03-02T12:24:45.434Z,0.20
2018-03-02T12:27:12.258Z,0.20
2018-03-02T12:29:38.404Z,0.20
2018-03-02T12:32:04.475Z,0.00
2018-03-02T12:34:31.307Z,0.30
2018-03-02T12:36:58.138Z,0.30
2018-03-02T12:39:24.217Z,0.30
2018-03-02T12:41:50.318Z,0.50
2018-03-02T12:44:16.384Z,0.40
2018-03-02T12:46:42.472Z,0.40
2018-03-02T12:49:08.616Z,0.30
2018-03-02T12:51:34.696Z,0.10
2018-03-02T12:54:00.770Z,0.20
2018-03-02T12:56:27.607Z,0.20
2018-03-02T12:58:54.446Z,0.10
2018-03-02T13:01:20.576Z,0.10
2018-03-02T13:03:46.711Z,0.00
2018-03-02T13:06:12.828Z,0.10
2018-03-02T13:08:38.970Z,0.10
2018-03-02T13:11:05.113Z,0.20
2018-03-02T13:13:31.234Z,0.30
2018-03-02T13:15:57.371Z,0.20
2018-03-02T13:18:35.718Z,0.20
2018-03-02T13:21:01.931Z,0.20
2018-03-02T13:23:27.998Z,0.40
2018-03-02T13:25:54.131Z,0.40
2018-03-02T13:28:32.560Z,0.40
2018-03-02T13:30:58.673Z,0.40
2018-03-02T13:33:36.967Z,0.40
2018-03-02T13:36:03.859Z,0.40
2018-03-02T13:38:29.938Z,0.40
2018-03-02T13:41:08.322Z,0.30
2018-03-02T13:43:34.413Z,0.20
2018-03-02T13:46:00.607Z,0.20
2018-03-02T13:48:39.094Z,0.20
2018-03-02T13:51:05.207Z,0.20
2018-03-02T13:53:31.295Z,0.30
2018-03-02T13:55:57.372Z,0.30
2018-03-02T13:58:23.509Z,0.40
2018-03-02T14:00:50.331Z,0.30
2018-03-02T14:03:28.771Z,0.30
2018-03-02T14:05:54.865Z,0.30
2018-03-02T14:08:21.092Z,0.30
2018-03-02T14:10:47.183Z,0.30
2018-03-02T14:13:13.275Z,0.30
2018-03-02T14:15:39.359Z,0.40
2018-03-02T14:18:05.506Z,0.50
2018-03-02T14:20:31.627Z,0.50
2018-03-02T14:22:58.551Z,0.40
2018-03-02T14:25:24.644Z,0.30
2018-03-02T14:27:50.767Z,0.30
2018-03-02T14:30:16.927Z,0.30
2018-03-02T14:32:43.019Z,0.40
2018-03-02T14:35:09.850Z,0.30
2018-03-02T14:37:35.956Z,0.30
2018-03-02T14:40:02.057Z,0.40
2018-03-02T14:42:28.888Z,0.40
2018-03-02T14:44:54.999Z,0.30
2018-03-02T14:47:21.867Z,0.50
2018-03-02T14:49:47.959Z,0.50
2018-03-02T14:52:14.046Z,0.50
2018-03-02T14:54:40.263Z,0.40
2018-03-02T14:57:07.079Z,0.50
2018-03-02T14:59:33.182Z,0.50
2018-03-02T15:01:59.256Z,0.50
2018-03-02T15:04:25.359Z,0.50
2018-03-02T15:06:51.448Z,0.50
2018-03-02T15:09:17.644Z,0.40
2018-03-02T15:11:44.511Z,0.30
2018-03-02T15:14:10.684Z,0.30
2018-03-02T15:16:36.771Z,0.40
2018-03-02T15:19:02.895Z,0.40
2018-03-02T15:21:29.047Z,0.20
2018-03-02T15:23:55.151Z,0.20
2018-03-02T15:26:21.295Z,0.10
2018-03-02T15:28:47.414Z,0.10
2018-03-02T15:31:13.495Z,0.10
2018-03-02T15:33:39.580Z,0.10
2018-03-02T15:36:05.691Z,0.00
2018-03-02T15:38:32.511Z,0.00
2018-03-02T15:40:58.624Z,0.00
2018-03-02T15:43:24.708Z,0.00
2018-03-02T15:45:50.809Z,0.00
2018-03-02T15:48:16.903Z,-0.10
2018-03-02T15:50:43.735Z,-0.20
2018-03-02T15:53:09.919Z,-0.20
2018-03-02T15:55:36.012Z,-0.20
2018-03-02T15:58:02.094Z,-0.20
2018-03-02T16:00:28.183Z,-0.20
2018-03-02T16:02:54.279Z,-0.20
2018-03-02T16:05:20.384Z,-0.30
2018-03-02T16:07:47.206Z,-0.30
2018-03-02T16:10:13.285Z,-0.30
2018-03-02T16:12:40.141Z,-0.30
2018-03-02T16:15:07.011Z,-0.30
2018-03-02T16:17:33.090Z,-0.40
2018-03-02T16:20:00.003Z,-0.50
2018-03-02T16:22:26.094Z,-0.50
2018-03-02T16:24:52.155Z,-0.50
2018-03-02T16:27:19.100Z,-0.50
2018-03-02T16:29:45.190Z,-0.60
2018-03-02T16:32:11.335Z,-0.60
2018-03-02T16:34:37.419Z,-0.60
2018-03-02T16:37:03.590Z,-0.70
2018-03-02T16:39:29.691Z,-0.70
2018-03-02T16:41:55.874Z,-0.70
2018-03-02T16:44:21.960Z,-0.70
2018-03-02T16:46:48.040Z,-0.80
2018-03-02T16:49:14.115Z,-0.80
2018-03-02T16:51:40.190Z,-0.90
2018-03-02T16:54:07.139Z,-0.90
2018-03-02T16:56:33.249Z,-0.90
2018-03-02T16:58:59.372Z,-0.90
2018-03-02T17:01:25.496Z,-0.90
2018-03-02T17:03:51.631Z,-1.00
2018-03-02T17:06:17.731Z,-1.00
2018-03-02T17:08:43.852Z,-1.00
2018-03-02T17:11:09.958Z,-1.10
2018-03-02T17:13:36.111Z,-1.10
2018-03-02T17:16:02.207Z,-1.10
2018-03-02T17:18:29.044Z,-1.10
2018-03-02T17:20:55.125Z,-1.20
2018-03-02T17:23:21.246Z,-1.10
2018-03-02T17:25:47.323Z,-1.20
2018-03-02T17:28:13.427Z,-1.20
2018-03-02T17:30:39.527Z,-1.20
2018-03-02T17:33:05.744Z,-1.20
2018-03-02T17:35:31.848Z,-1.20
2018-03-02T17:37:57.973Z,-1.20
2018-03-02T17:40:24.152Z,-1.30
2018-03-02T17:42:50.984Z,-1.30
2018-03-02T17:45:17.203Z,-1.30
2018-03-02T17:47:43.283Z,-1.40
2018-03-02T17:50:09.410Z,-1.40
2018-03-02T17:52:35.552Z,-1.50
2018-03-02T17:55:01.661Z,-1.50
2018-03-02T17:57:28.601Z,-1.50
2018-03-02T17:59:54.887Z,-1.60
2018-03-02T18:02:21.088Z,-1.50
2018-03-02T18:04:47.176Z,-1.50
2018-03-02T18:07:13.347Z,-1.50
2018-03-02T18:09:39.547Z,-1.50
2018-03-02T18:12:05.725Z,-1.50
2018-03-02T18:14:31.826Z,-1.50
2018-03-02T18:16:57.959Z,-1.50
2018-03-02T18:19:24.135Z,-1.50
2018-03-02T18:21:50.267Z,-1.50
2018-03-02T18:24:16.440Z,-1.50
2018-03-02T18:26:42.664Z,-1.50
2018-03-02T18:29:08.787Z,-1.50
2018-03-02T18:31:34.927Z,-1.50
2018-03-02T18:34:01.052Z,-1.50
2018-03-02T18:36:27.182Z,-1.50
2018-03-02T18:38:53.320Z,-1.50
2018-03-02T18:41:19.479Z,-1.50
2018-03-02T18:43:45.588Z,-1.50
2018-03-02T18:46:11.679Z,-1.50
2018-03-02T18:48:37.859Z,-1.50
2018-03-02T18:51:03.958Z,-1.50
2018-03-02T18:53:30.028Z,-1.50
2018-03-02T18:55:56.195Z,-1.50
2018-03-02T18:58:22.323Z,-1.50
2018-03-02T19:00:48.471Z,-1.60
2018-03-02T19:03:14.592Z,-1.60
2018-03-02T19:05:40.688Z,-1.60
2018-03-02T19:08:06.787Z,-1.60
2018-03-02T19:10:32.938Z,-1.60
2018-03-02T19:12:59.024Z,-1.60
2018-03-02T19:15:25.911Z,-1.60
2018-03-02T19:17:52.063Z,-1.60
2018-03-02T19:20:18.206Z,-1.70
2018-03-02T19:22:44.299Z,-1.70
2018-03-02T19:25:11.152Z,-1.60
2018-03-02T19:27:37.970Z,-1.70
2018-03-02T19:30:04.169Z,-1.70
2018-03-02T19:32:30.321Z,-1.70
2018-03-02T19:34:56.443Z,-1.70
2018-03-02T19:37:22.530Z,-1.70
2018-03-02T19:39:48.756Z,-1.70
2018-03-02T19:42:14.878Z,-1.70
2018-03-02T19:44:41.351Z,-1.70
2018-03-02T19:47:07.623Z,-1.70
2018-03-02T19:49:34.539Z,-1.70
2018-03-02T19:52:00.679Z,-1.70
2018-03-02T19:54:26.996Z,-1.70
2018-03-02T19:56:53.105Z,-1.70
2018-03-02T19:59:19.932Z,-1.70
2018-03-02T20:01:46.063Z,-1.70
2018-03-02T20:04:12.191Z,-1.70
2018-03-02T20:06:38.340Z,-1.60
2018-03-02T20:09:04.500Z,-1.70
2018-03-02T20:11:31.284Z,-1.70
2018-03-02T20:13:57.439Z,-1.70
2018-03-02T20:16:23.632Z,-1.70
2018-03-02T20:18:49.731Z,-1.70
2018-03-02T20:21:15.958Z,-1.60
2018-03-02T20:23:42.091Z,-1.60
2018-03-02T20:26:08.223Z,-1.70
2018-03-02T20:28:34.325Z,-1.60
2018-03-02T20:31:00.611Z,-1.60
2018-03-02T20:33:26.791Z,-1.70
2018-03-02T20:35:52.982Z,-1.70
2018-03-02T20:38:19.096Z,-1.60
2018-03-02T20:40:45.931Z,-1.70
2018-03-02T20:43:12.111Z,-1.70
2018-03-02T20:45:38.266Z,-1.70
2018-03-02T20:48:04.425Z,-1.70
2018-03-02T20:50:30.572Z,-1.70
2018-03-02T20:52:56.738Z,-1.70
2018-03-02T20:55:22.957Z,-1.70
2018-03-02T20:57:49.184Z,-1.70
2018-03-02T21:00:15.328Z,-1.70
2018-03-02T21:02:42.282Z,-1.70
2018-03-02T21:05:08.445Z,-1.70
2018-03-02T21:07:34.575Z,-1.70
2018-03-02T21:10:00.696Z,-1.70
2018-03-02T21:12:26.806Z,-1.70
2018-03-02T21:14:53.008Z,-1.80
2018-03-02T21:17:19.214Z,-1.70
2018-03-02T21:19:45.279Z,-1.80
2018-03-02T21:22:11.400Z,-1.70
2018-03-02T21:24:37.496Z,-1.70
2018-03-02T21:27:03.615Z,-1.70
2018-03-02T21:29:30.500Z,-1.70
2018-03-02T21:31:56.658Z,-1.70
2018-03-02T21:34:23.699Z,-1.70
2018-03-02T21:36:49.675Z,-1.70
2018-03-02T21:39:15.817Z,-1.70
2018-03-02T21:41:41.941Z,-1.70
2018-03-02T21:44:08.044Z,-1.70
2018-03-02T21:46:34.211Z,-1.70
2018-03-02T21:49:00.286Z,-1.70
2018-03-02T21:51:26.377Z,-1.80
2018-03-02T21:53:52.480Z,-1.80
2018-03-02T21:56:19.307Z,-2.10
2018-03-02T21:58:45.450Z,-2.10
2018-03-02T22:01:11.534Z,-2.10
2018-03-02T22:03:37.704Z,-2.10
2018-03-02T22:06:03.900Z,-2.20
2018-03-02T22:08:29.999Z,-2.20
2018-03-02T22:10:56.091Z,-2.30
2018-03-02T22:13:22.250Z,-2.30
2018-03-02T22:15:48.323Z,-2.30
2018-03-02T22:18:14.403Z,-2.30
2018-03-02T22:20:40.511Z,-2.30
2018-03-02T22:23:07.344Z,-2.50
2018-03-02T22:25:33.563Z,-2.50
2018-03-02T22:27:59.652Z,-2.60
2018-03-02T22:30:26.502Z,-2.60
2018-03-02T22:32:53.360Z,-2.70
2018-03-02T22:35:20.228Z,-2.70
2018-03-02T22:37:46.303Z,-2.70
2018-03-02T22:40:12.407Z,-2.80
2018-03-02T22:42:38.518Z,-2.80
2018-03-02T22:45:04.638Z,-2.80
2018-03-02T22:47:30.731Z,-2.80
2018-03-02T22:49:56.805Z,-2.90
2018-03-02T22:52:22.903Z,-2.90
2018-03-02T22:54:49.032Z,-2.90
2018-03-02T22:57:15.136Z,-2.90
2018-03-02T22:59:41.274Z,-2.90
2018-03-02T23:02:07.392Z,-3.00
2018-03-02T23:04:33.474Z,-3.00
2018-03-02T23:07:00.347Z,-3.00
2018-03-02T23:09:26.407Z,-3.00
2018-03-02T23:11:52.479Z,-3.00
2018-03-02T23:14:18.596Z,-3.00
2018-03-02T23:16:44.692Z,-3.00
2018-03-02T23:19:10.772Z,-3.00
2018-03-02T23:21:37.623Z,-3.00
2018-03-02T23:24:03.735Z,-3.00
2018-03-02T23:26:29.871Z,-3.00
2018-03-02T23:28:56.142Z,-3.00
2018-03-02T23:31:22.083Z,-3.00
2018-03-02T23:33:48.143Z,-3.00
2018-03-02T23:36:14.227Z,-3.10
2018-03-02T23:38:40.323Z,-3.10
2018-03-02T23:41:06.395Z,-3.10
2018-03-02T23:43:32.496Z,-3.20
2018-03-02T23:45:58.584Z,-3.10
2018-03-02T23:48:24.691Z,-3.10
2018-03-02T23:50:51.490Z,-3.10
2018-03-02T23:53:17.592Z,-3.10
2018-03-02T23:55:43.731Z,-3.10
2018-03-02T23:58:09.798Z,-3.10
